createdAt,value
2019-04-29T00:01:36.898Z,8.10
2019-04-29T00:04:06.650Z,8.10
2019-04-29T00:06:36.304Z,8.05
2019-04-29T00:09:10.448Z,7.99
2019-04-29T00:11:40.614Z,7.93
2019-04-29T00:14:10.620Z,7.88
2019-04-29T00:16:45.999Z,7.83
2019-04-29T00:19:30.364Z,7.82
2019-04-29T00:22:00.682Z,7.81
2019-04-29T00:24:31.408Z,7.79
2019-04-29T00:27:01.148Z,7.79
2019-04-29T00:29:30.891Z,7.77
2019-04-29T00:32:00.799Z,7.73
2019-04-29T00:34:30.459Z,7.72
2019-04-29T00:37:31.638Z,7.67
2019-04-29T00:40:34.719Z,7.63
2019-04-29T00:43:28.000Z,7.60
2019-04-29T00:45:58.013Z,7.61
2019-04-29T00:48:28.011Z,7.62
2019-04-29T00:50:57.682Z,7.63
2019-04-29T00:53:27.860Z,7.64
2019-04-29T00:55:59.506Z,7.65
2019-04-29T00:58:29.449Z,7.66
2019-04-29T01:00:59.287Z,7.66
2019-04-29T01:03:29.052Z,7.64
2019-04-29T01:05:58.794Z,7.61
2019-04-29T01:08:28.615Z,7.60
2019-04-29T01:10:58.550Z,7.57
2019-04-29T01:13:28.295Z,7.57
2019-04-29T01:15:58.198Z,7.55
2019-04-29T01:18:27.936Z,7.50
2019-04-29T01:20:57.990Z,7.46
2019-04-29T01:23:27.662Z,7.41
2019-04-29T01:26:00.684Z,7.36
2019-04-29T01:28:49.593Z,7.34
2019-04-29T01:31:24.335Z,7.32
2019-04-29T01:33:57.990Z,7.29
2019-04-29T01:36:33.012Z,7.25
2019-04-29T01:39:04.564Z,7.19
2019-04-29T01:41:42.438Z,7.17
2019-04-29T01:44:12.122Z,7.18
2019-04-29T01:46:41.819Z,7.15
2019-04-29T01:49:11.500Z,7.11
2019-04-29T01:51:41.480Z,7.08
2019-04-29T01:54:11.137Z,7.07
2019-04-29T01:56:41.399Z,7.06
2019-04-29T01:59:12.099Z,7.02
2019-04-29T02:01:41.922Z,7.01
2019-04-29T02:04:11.646Z,7.00
2019-04-29T02:06:41.315Z,6.95
2019-04-29T02:09:15.636Z,6.95
2019-04-29T02:11:45.375Z,6.99
2019-04-29T02:14:15.046Z,6.97
2019-04-29T02:16:44.708Z,6.94
2019-04-29T02:19:14.381Z,6.92
2019-04-29T02:22:03.085Z,6.91
2019-04-29T02:24:33.136Z,6.91
2019-04-29T02:27:05.609Z,6.91
2019-04-29T02:29:34.214Z,6.92
2019-04-29T02:32:04.869Z,6.93
2019-04-29T02:34:34.545Z,6.93
2019-04-29T02:37:06.856Z,6.93
2019-04-29T02:39:48.171Z,6.91
2019-04-29T02:42:43.130Z,6.94
2019-04-29T02:45:21.023Z,6.92
2019-04-29T02:47:53.538Z,6.89
2019-04-29T02:50:23.526Z,6.89
2019-04-29T02:52:53.303Z,6.86
2019-04-29T02:55:28.761Z,6.81
2019-04-29T02:58:06.275Z,6.79
2019-04-29T03:01:01.190Z,6.77
2019-04-29T03:03:39.086Z,6.75
2019-04-29T03:06:08.904Z,6.74
2019-04-29T03:08:38.825Z,6.68
2019-04-29T03:11:08.571Z,6.62
2019-04-29T03:13:38.816Z,6.56
2019-04-29T03:16:08.820Z,6.53
2019-04-29T03:18:42.490Z,6.49
2019-04-29T03:21:18.433Z,6.45
2019-04-29T03:23:48.109Z,6.41
2019-04-29T03:26:17.830Z,6.38
2019-04-29T03:28:47.493Z,6.35
2019-04-29T03:31:17.180Z,6.35
2019-04-29T03:33:46.993Z,6.33
2019-04-29T03:36:16.799Z,6.26
2019-04-29T03:38:46.454Z,6.26
2019-04-29T03:41:16.099Z,6.25
2019-04-29T03:43:45.770Z,6.24
2019-04-29T03:46:15.436Z,6.24
2019-04-29T03:48:45.108Z,6.22
2019-04-29T03:51:14.785Z,6.23
2019-04-29T03:53:44.447Z,6.23
2019-04-29T03:56:14.351Z,6.24
2019-04-29T03:58:44.041Z,6.24
2019-04-29T04:01:22.403Z,6.24
2019-04-29T04:03:56.791Z,6.20
2019-04-29T04:06:36.038Z,6.15
2019-04-29T04:09:15.450Z,6.13
2019-04-29T04:11:45.122Z,6.08
2019-04-29T04:14:15.042Z,6.07
2019-04-29T04:17:20.263Z,6.05
2019-04-29T04:19:48.300Z,6.04
2019-04-29T04:22:18.057Z,6.00
2019-04-29T04:24:47.804Z,5.97
2019-04-29T04:27:17.480Z,5.93
2019-04-29T04:29:48.145Z,5.94
2019-04-29T04:32:17.843Z,5.97
2019-04-29T04:34:47.505Z,5.99
2019-04-29T04:37:17.192Z,6.01
2019-04-29T04:39:46.862Z,6.04
2019-04-29T04:42:16.888Z,6.06
2019-04-29T04:44:49.886Z,6.06
2019-04-29T04:47:20.075Z,6.07
2019-04-29T04:49:49.518Z,6.05
2019-04-29T04:52:18.471Z,6.06
2019-04-29T04:54:48.270Z,6.08
2019-04-29T04:57:17.153Z,6.09
2019-04-29T04:59:47.136Z,6.12
2019-04-29T05:02:16.819Z,6.13
2019-04-29T05:04:46.585Z,6.17
2019-04-29T05:07:17.237Z,6.23
2019-04-29T05:09:47.954Z,6.27
2019-04-29T05:12:17.868Z,6.27
2019-04-29T05:14:47.529Z,6.28
2019-04-29T05:17:17.208Z,6.31
2019-04-29T05:19:46.893Z,6.34
2019-04-29T05:22:16.586Z,6.36
2019-04-29T05:24:46.273Z,6.39
2019-04-29T05:27:16.208Z,6.44
2019-04-29T05:29:46.113Z,6.48
2019-04-29T05:32:15.798Z,6.51
2019-04-29T05:34:48.008Z,6.55
2019-04-29T05:37:56.523Z,6.60
2019-04-29T05:40:40.792Z,6.65
2019-04-29T05:43:11.060Z,6.71
2019-04-29T05:45:47.882Z,6.75
2019-04-29T05:48:16.439Z,6.79
2019-04-29T05:50:57.835Z,6.82
2019-04-29T05:53:33.460Z,6.89
2019-04-29T05:56:03.137Z,6.98
2019-04-29T05:58:37.620Z,7.06
2019-04-29T06:01:11.008Z,7.15
2019-04-29T06:03:44.045Z,7.22
2019-04-29T06:06:12.544Z,7.31
2019-04-29T06:08:42.155Z,7.42
2019-04-29T06:11:12.089Z,7.58
2019-04-29T06:13:41.763Z,7.79
2019-04-29T06:16:15.968Z,8.09
2019-04-29T06:18:43.153Z,8.38
2019-04-29T06:21:12.909Z,8.62
2019-04-29T06:23:42.581Z,8.85
2019-04-29T06:26:12.757Z,9.06
2019-04-29T06:28:43.425Z,9.26
2019-04-29T06:31:15.426Z,9.53
2019-04-29T06:33:45.138Z,9.65
2019-04-29T06:36:14.946Z,9.94
2019-04-29T06:38:44.908Z,10.23
2019-04-29T06:41:14.603Z,10.48
2019-04-29T06:43:44.305Z,10.83
2019-04-29T06:46:14.354Z,11.22
2019-04-29T06:48:44.126Z,11.59
2019-04-29T06:51:14.162Z,11.87
2019-04-29T06:53:43.858Z,12.17
2019-04-29T06:56:13.535Z,12.32
2019-04-29T06:58:43.378Z,12.46
2019-04-29T07:01:13.072Z,12.62
2019-04-29T07:03:42.967Z,12.68
2019-04-29T07:06:13.628Z,12.88
2019-04-29T07:08:43.347Z,13.07
2019-04-29T07:11:13.110Z,13.26
2019-04-29T07:13:42.843Z,13.49
2019-04-29T07:16:12.987Z,13.70
2019-04-29T07:18:48.338Z,13.92
2019-04-29T07:21:14.477Z,14.00
2019-04-29T07:23:44.147Z,14.02
2019-04-29T07:26:13.852Z,14.05
2019-04-29T07:28:43.548Z,14.16
2019-04-29T07:31:13.237Z,14.29
2019-04-29T07:33:42.969Z,14.38
2019-04-29T07:36:12.669Z,14.67
2019-04-29T07:38:46.487Z,14.74
2019-04-29T07:41:18.460Z,15.03
2019-04-29T07:43:45.406Z,15.14
2019-04-29T07:46:36.463Z,15.23
2019-04-29T07:49:05.885Z,15.28
2019-04-29T07:51:39.438Z,15.26
2019-04-29T07:54:11.065Z,15.15
2019-04-29T07:56:42.350Z,15.05
2019-04-29T07:59:11.343Z,15.17
2019-04-29T08:01:41.253Z,15.22
2019-04-29T08:04:09.712Z,14.98
2019-04-29T08:06:42.654Z,15.04
2019-04-29T08:09:09.732Z,15.02
2019-04-29T08:11:38.210Z,14.84
2019-04-29T08:14:06.600Z,14.91
2019-04-29T08:16:34.902Z,15.10
2019-04-29T08:19:05.044Z,15.28
2019-04-29T08:21:33.494Z,15.51
2019-04-29T08:24:01.795Z,15.52
2019-04-29T08:26:33.588Z,15.64
2019-04-29T08:29:00.826Z,15.62
2019-04-29T08:31:29.890Z,15.69
2019-04-29T08:33:58.213Z,15.74
2019-04-29T08:36:26.926Z,15.89
2019-04-29T08:39:08.015Z,16.28
2019-04-29T08:41:28.797Z,16.42
2019-04-29T08:44:16.198Z,16.62
2019-04-29T08:46:51.818Z,16.85
2019-04-29T08:49:17.218Z,16.82
2019-04-29T08:51:45.658Z,16.81
2019-04-29T08:54:16.018Z,16.92
2019-04-29T08:57:01.656Z,16.80
2019-04-29T08:59:20.672Z,16.77
2019-04-29T09:01:48.858Z,16.97
2019-04-29T09:04:18.551Z,17.17
2019-04-29T09:06:48.229Z,17.23
2019-04-29T09:09:28.452Z,17.36
2019-04-29T09:11:49.618Z,17.37
2019-04-29T09:14:19.465Z,17.34
2019-04-29T09:16:49.161Z,17.28
2019-04-29T09:19:18.868Z,17.13
2019-04-29T09:21:51.512Z,17.09
2019-04-29T09:24:22.571Z,16.93
2019-04-29T09:26:58.233Z,16.99
2019-04-29T09:29:32.257Z,16.84
2019-04-29T09:32:02.213Z,16.62
2019-04-29T09:34:31.980Z,16.46
2019-04-29T09:37:01.997Z,16.61
2019-04-29T09:39:43.157Z,16.66
2019-04-29T09:42:30.743Z,16.46
2019-04-29T09:45:05.465Z,16.49
2019-04-29T09:47:35.426Z,16.54
2019-04-29T09:50:06.739Z,16.50
2019-04-29T09:52:36.857Z,16.74
2019-04-29T09:55:07.216Z,16.78
2019-04-29T09:57:36.906Z,16.80
2019-04-29T10:00:14.055Z,16.76
2019-04-29T10:02:52.065Z,16.76
2019-04-29T10:05:40.300Z,16.68
2019-04-29T10:08:09.567Z,16.65
2019-04-29T10:10:38.019Z,16.70
2019-04-29T10:13:06.324Z,16.58
2019-04-29T10:15:55.934Z,16.69
2019-04-29T10:18:50.740Z,16.72
2019-04-29T10:21:21.405Z,16.81
2019-04-29T10:23:49.221Z,16.88
2019-04-29T10:26:17.806Z,17.03
2019-04-29T10:28:59.733Z,17.14
2019-04-29T10:31:28.183Z,17.27
2019-04-29T10:33:56.641Z,17.41
2019-04-29T10:36:26.338Z,17.50
2019-04-29T10:38:56.551Z,17.77
2019-04-29T10:41:30.495Z,17.82
2019-04-29T10:44:25.878Z,17.95
2019-04-29T10:47:07.386Z,17.89
2019-04-29T10:49:55.327Z,18.00
2019-04-29T10:52:23.730Z,18.13
2019-04-29T10:54:55.352Z,18.36
2019-04-29T10:57:25.555Z,18.29
2019-04-29T11:00:01.376Z,18.28
2019-04-29T11:02:40.196Z,18.28
2019-04-29T11:05:34.889Z,18.50
2019-04-29T11:08:15.321Z,18.56
2019-04-29T11:10:45.359Z,18.64
2019-04-29T11:13:15.372Z,18.74
2019-04-29T11:15:49.436Z,18.72
2019-04-29T11:18:22.575Z,18.66
2019-04-29T11:20:48.912Z,18.42
2019-04-29T11:23:27.278Z,18.58
2019-04-29T11:26:15.281Z,18.65
2019-04-29T11:28:46.940Z,18.58
2019-04-29T11:31:19.314Z,18.61
2019-04-29T11:33:59.661Z,18.44
2019-04-29T11:36:29.429Z,18.32
2019-04-29T11:38:59.114Z,18.50
2019-04-29T11:41:31.645Z,18.63
2019-04-29T11:44:01.344Z,18.47
2019-04-29T11:46:31.169Z,18.23
2019-04-29T11:49:02.577Z,18.35
2019-04-29T11:52:07.942Z,18.46
2019-04-29T11:54:18.073Z,18.52
2019-04-29T11:56:46.699Z,18.44
2019-04-29T11:59:34.294Z,18.36
2019-04-29T12:02:37.690Z,18.42
2019-04-29T12:05:04.118Z,18.56
2019-04-29T12:07:34.111Z,18.30
2019-04-29T12:10:06.472Z,18.31
2019-04-29T12:12:35.932Z,18.12
2019-04-29T12:15:34.722Z,18.06
2019-04-29T12:18:12.236Z,18.13
2019-04-29T12:21:13.279Z,18.28
2019-04-29T12:23:43.343Z,18.51
2019-04-29T12:26:13.377Z,18.46
2019-04-29T12:28:44.499Z,18.28
2019-04-29T12:31:29.998Z,18.21
2019-04-29T12:34:09.073Z,18.19
2019-04-29T12:36:55.023Z,18.06
2019-04-29T12:39:42.865Z,17.90
2019-04-29T12:42:28.471Z,17.82
2019-04-29T12:45:01.353Z,17.90
2019-04-29T12:47:33.104Z,18.06
2019-04-29T12:50:02.802Z,17.97
2019-04-29T12:52:32.518Z,17.90
2019-04-29T12:55:19.813Z,17.57
2019-04-29T12:57:35.988Z,17.54
2019-04-29T13:00:09.166Z,17.64
2019-04-29T13:03:01.437Z,17.63
2019-04-29T13:05:57.910Z,17.56
2019-04-29T13:08:28.518Z,17.56
2019-04-29T13:11:00.805Z,17.58
2019-04-29T13:13:30.629Z,17.55
2019-04-29T13:16:20.831Z,17.47
2019-04-29T13:19:10.646Z,17.52
2019-04-29T13:21:30.787Z,17.58
2019-04-29T13:24:13.577Z,17.74
2019-04-29T13:26:33.357Z,18.02
2019-04-29T13:29:03.576Z,18.23
2019-04-29T13:31:38.374Z,18.35
2019-04-29T13:34:22.963Z,18.41
2019-04-29T13:36:39.045Z,18.26
2019-04-29T13:39:09.696Z,18.09
2019-04-29T13:41:56.167Z,17.94
2019-04-29T13:44:11.597Z,17.74
2019-04-29T13:47:03.247Z,17.65
2019-04-29T13:49:50.596Z,17.75
2019-04-29T13:52:20.749Z,17.73
2019-04-29T17:10:10.605Z,13.94
2019-04-29T17:12:47.963Z,13.92
2019-04-29T17:15:26.083Z,13.91
2019-04-29T17:17:55.582Z,13.89
2019-04-29T17:20:25.273Z,13.85
2019-04-29T17:22:54.955Z,13.87
2019-04-29T17:25:25.108Z,13.83
2019-04-29T17:28:12.317Z,13.77
2019-04-29T17:31:12.452Z,13.76
2019-04-29T17:33:50.191Z,13.71
2019-04-29T17:36:23.803Z,13.56
2019-04-29T17:38:51.679Z,13.52
2019-04-29T17:41:21.380Z,13.43
2019-04-29T17:44:02.334Z,13.31
2019-04-29T17:46:50.693Z,13.09
2019-04-29T17:49:30.759Z,13.13
2019-04-29T17:52:02.793Z,13.21
2019-04-29T17:54:37.026Z,13.03
2019-04-29T17:57:31.467Z,13.09
2019-04-29T18:00:15.873Z,13.04
2019-04-29T18:03:05.284Z,12.98
2019-04-29T18:05:55.025Z,12.90
2019-04-29T18:08:27.339Z,12.90
2019-04-29T18:10:59.844Z,12.86
2019-04-29T18:13:30.546Z,12.92
2019-04-29T18:16:03.968Z,12.87
2019-04-29T18:18:46.568Z,12.79
2019-04-29T18:21:43.389Z,12.78
2019-04-29T18:24:25.349Z,12.76
2019-04-29T18:27:00.294Z,12.75
2019-04-29T18:29:28.600Z,12.72
2019-04-29T18:32:00.487Z,12.78
2019-04-29T18:34:29.273Z,12.87
2019-04-29T18:37:00.366Z,12.83
2019-04-29T18:39:31.650Z,12.78
2019-04-29T18:42:03.208Z,12.81
2019-04-29T18:44:33.024Z,12.80
2019-04-29T18:47:02.703Z,12.79
2019-04-29T18:49:32.386Z,12.78
2019-04-29T18:52:03.828Z,12.71
2019-04-29T18:54:33.489Z,12.75
2019-04-29T18:57:03.183Z,12.77
2019-04-29T18:59:36.688Z,12.78
2019-04-29T19:02:09.355Z,12.76
2019-04-29T19:04:48.496Z,12.78
2019-04-29T19:07:17.522Z,12.80
2019-04-29T19:09:47.292Z,12.88
2019-04-29T19:12:17.054Z,12.94
2019-04-29T19:14:47.868Z,12.98
2019-04-29T19:17:17.632Z,12.92
2019-04-29T19:19:47.313Z,12.90
2019-04-29T19:22:16.990Z,12.89
2019-04-29T19:24:48.196Z,12.92
2019-04-29T19:27:17.983Z,12.96
2019-04-29T19:29:47.733Z,12.91
2019-04-29T19:32:18.775Z,12.91
2019-04-29T19:34:50.199Z,12.86
2019-04-29T19:37:18.842Z,12.84
2019-04-29T19:39:47.143Z,12.78
2019-04-29T19:42:28.316Z,12.70
2019-04-29T19:44:45.930Z,12.67
2019-04-29T19:47:16.687Z,12.71
2019-04-29T19:49:46.544Z,12.75
2019-04-29T19:52:27.956Z,12.69
2019-04-29T19:54:48.690Z,12.60
2019-04-29T19:57:18.452Z,12.64
2019-04-29T19:59:51.995Z,12.65
2019-04-29T20:02:20.118Z,12.62
2019-04-29T20:04:58.936Z,12.61
2019-04-29T20:07:27.567Z,12.60
2019-04-29T20:10:04.046Z,12.61
2019-04-29T20:12:29.593Z,12.54
2019-04-29T20:15:01.980Z,12.54
2019-04-29T20:17:53.142Z,12.56
2019-04-29T20:20:35.042Z,12.53
2019-04-29T20:23:03.112Z,12.54
2019-04-29T20:25:38.066Z,12.54
2019-04-29T20:28:08.636Z,12.58
2019-04-29T20:30:37.042Z,12.62
2019-04-29T20:33:09.596Z,12.57
2019-04-29T20:35:40.454Z,12.56
2019-04-29T20:38:09.687Z,12.56
2019-04-29T20:40:43.062Z,12.52
2019-04-29T20:43:11.449Z,12.50
2019-04-29T20:45:41.219Z,12.46
2019-04-29T20:48:15.327Z,12.41
2019-04-29T20:50:46.106Z,12.48
2019-04-29T20:53:19.202Z,12.49
2019-04-29T20:55:49.159Z,12.53
2019-04-29T20:58:23.398Z,12.50
2019-04-29T21:00:50.372Z,12.50
2019-04-29T21:03:27.693Z,12.52
2019-04-29T21:05:54.914Z,12.52
2019-04-29T21:08:23.322Z,12.43
2019-04-29T21:10:55.445Z,12.47
2019-04-29T21:13:33.581Z,12.44
2019-04-29T21:16:11.588Z,12.46
2019-04-29T21:18:45.480Z,12.46
2019-04-29T21:21:12.837Z,12.51
2019-04-29T21:23:42.636Z,12.50
2019-04-29T21:26:12.394Z,12.52
2019-04-29T21:28:44.637Z,12.55
2019-04-29T21:31:18.525Z,12.55
2019-04-29T21:33:45.628Z,12.51
2019-04-29T21:36:26.484Z,12.49
2019-04-29T21:39:02.337Z,12.52
2019-04-29T21:41:42.326Z,12.52
2019-04-29T21:44:12.112Z,12.54
2019-04-29T21:46:40.358Z,12.52
2019-04-29T21:49:11.687Z,12.53
2019-04-29T21:51:41.773Z,12.54
2019-04-29T21:54:09.717Z,12.51
2019-04-29T21:56:39.740Z,12.53
2019-04-29T21:59:12.271Z,12.58
2019-04-29T22:01:41.561Z,12.56
2019-04-29T22:04:11.270Z,12.52
2019-04-29T22:06:41.039Z,12.48
2019-04-29T22:09:12.432Z,12.49
2019-04-29T22:11:44.590Z,12.52
2019-04-29T22:14:15.547Z,12.55
2019-04-29T22:16:47.571Z,12.56
2019-04-29T22:19:17.586Z,12.48
2019-04-29T22:21:47.550Z,12.44
2019-04-29T22:24:17.389Z,12.46
2019-04-29T22:26:47.159Z,12.46
2019-04-29T22:29:16.859Z,12.48
2019-04-29T22:31:46.691Z,12.45
2019-04-29T22:34:19.028Z,12.42
2019-04-29T22:36:52.661Z,12.42
2019-04-29T22:39:21.714Z,12.38
2019-04-29T22:42:01.587Z,12.38
2019-04-29T22:44:31.606Z,12.38
2019-04-29T22:47:01.301Z,12.39
2019-04-29T22:49:32.062Z,12.29
2019-04-29T22:52:01.760Z,12.24
2019-04-29T22:54:31.444Z,12.15
2019-04-29T22:57:01.239Z,12.00
2019-04-29T22:59:30.911Z,12.01
2019-04-29T23:02:01.016Z,12.05
2019-04-29T23:04:30.707Z,12.06
2019-04-29T23:07:00.471Z,12.11
2019-04-29T23:09:30.674Z,12.16
2019-04-29T23:12:00.362Z,12.15
2019-04-29T23:14:30.133Z,12.15
2019-04-29T23:16:59.830Z,12.13
2019-04-29T23:19:29.578Z,12.17
2019-04-29T23:22:07.512Z,12.24
2019-04-29T23:24:55.838Z,12.27
2019-04-29T23:27:25.933Z,12.27
2019-04-29T23:29:55.877Z,12.25
2019-04-29T23:32:25.565Z,12.19
2019-04-29T23:34:57.235Z,12.22
2019-04-29T23:37:29.458Z,12.23
2019-04-29T23:39:59.174Z,12.24
2019-04-29T23:42:28.852Z,12.26
2019-04-29T23:44:58.551Z,12.18
2019-04-29T23:47:28.318Z,12.17
2019-04-29T23:49:58.011Z,12.19
2019-04-29T23:52:27.695Z,12.12
2019-04-29T23:54:56.301Z,12.03
2019-04-29T23:57:46.133Z,12.00
